<?xml version='1.0' encoding='UTF-8'?><gpx version="1.1" creator="JPX - https://github.com/jenetics/jpx" xmlns="http://www.topografix.com/GPX/1/1"><trk><trkseg><trkpt lat="43.7575843" lon="11.180726"><ele>45.0</ele><time>2026-04-13T10:37:52.234Z</time></trkpt><trkpt lat="43.7576903" lon="11.1807096"><ele>45.0</ele><time>2026-04-13T10:38:01.008Z</time></trkpt><trkpt lat="43.7575076" lon="11.1801964"><ele>43.0</ele><time>2026-04-13T10:38:03.31Z</time></trkpt><trkpt lat="43.7573462" lon="11.1797574"><ele>41.0</ele><time>2026-04-13T10:38:03.787Z</time></trkpt><trkpt lat="43.7572991" lon="11.1796176"><ele>41.0</ele><time>2026-04-13T10:38:05.308Z</time></trkpt><trkpt lat="43.75738" lon="11.1796605"><ele>41.0</ele><time>2026-04-13T10:38:09.248Z</time></trkpt><trkpt lat="43.7574365" lon="11.179723"><ele>41.0</ele><time>2026-04-13T10:38:11.395Z</time></trkpt><trkpt lat="43.757599" lon="11.1800348"><ele>41.0</ele><time>2026-04-13T10:38:12.375Z</time></trkpt><trkpt lat="43.7578193" lon="11.1805049"><ele>41.5</ele><time>2026-04-13T10:38:13.375Z</time></trkpt><trkpt lat="43.7578846" lon="11.1806564"><ele>42.0</ele><time>2026-04-13T10:38:14.439Z</time></trkpt><trkpt lat="43.7578507" lon="11.1807794"><ele>42.5</ele><time>2026-04-13T10:38:16.351Z</time></trkpt><trkpt lat="43.7579038" lon="11.1808639"><ele>43.0</ele><time>2026-04-13T10:38:30.412Z</time></trkpt><trkpt lat="43.7579576" lon="11.1809201"><ele>43.5</ele><time>2026-04-13T10:38:34.434Z</time></trkpt><trkpt lat="43.757982" lon="11.1810095"><ele>44.0</ele><time>2026-04-13T10:38:38.456Z</time></trkpt><trkpt lat="43.7579548" lon="11.1810899"><ele>44.0</ele><time>2026-04-13T10:38:41.391Z</time></trkpt><trkpt lat="43.7579049" lon="11.1811669"><ele>44.0</ele><time>2026-04-13T10:38:45.414Z</time></trkpt><trkpt lat="43.757863" lon="11.1812417"><ele>44.0</ele><time>2026-04-13T10:38:49.435Z</time></trkpt><trkpt lat="43.7578326" lon="11.1813396"><ele>44.0</ele><time>2026-04-13T10:38:54.435Z</time></trkpt><trkpt lat="43.7578064" lon="11.1814309"><ele>44.0</ele><time>2026-04-13T10:38:58.344Z</time></trkpt><trkpt lat="43.7577812" lon="11.1815158"><ele>44.0</ele><time>2026-04-13T10:39:02.375Z</time></trkpt><trkpt lat="43.7577618" lon="11.1816008"><ele>44.0</ele><time>2026-04-13T10:39:07.465Z</time></trkpt><trkpt lat="43.757748" lon="11.181701"><ele>44.0</ele><time>2026-04-13T10:39:13.457Z</time></trkpt><trkpt lat="43.7577099" lon="11.1817733"><ele>44.0</ele><time>2026-04-13T10:39:19.435Z</time></trkpt><trkpt lat="43.7576769" lon="11.1818623"><ele>44.0</ele><time>2026-04-13T10:39:23.457Z</time></trkpt><trkpt lat="43.7576583" lon="11.1819671"><ele>44.0</ele><time>2026-04-13T10:39:27.375Z</time></trkpt><trkpt lat="43.7576486" lon="11.1820592"><ele>44.0</ele><time>2026-04-13T10:39:32.466Z</time></trkpt><trkpt lat="43.7576185" lon="11.1821469"><ele>44.0</ele><time>2026-04-13T10:39:38.457Z</time></trkpt><trkpt lat="43.7575698" lon="11.1822111"><ele>44.0</ele><time>2026-04-13T10:39:44.436Z</time></trkpt><trkpt lat="43.7575361" lon="11.1822956"><ele>44.285714285714285</ele><time>2026-04-13T10:39:49.443Z</time></trkpt><trkpt lat="43.7574856" lon="11.1823567"><ele>44.57142857142857</ele><time>2026-04-13T10:39:54.305Z</time></trkpt><trkpt lat="43.7574208" lon="11.1823891"><ele>44.85714285714286</ele><time>2026-04-13T10:40:00.466Z</time></trkpt><trkpt lat="43.757379" lon="11.1824549"><ele>45.14285714285714</ele><time>2026-04-13T10:40:04.436Z</time></trkpt><trkpt lat="43.7573399" lon="11.1825322"><ele>45.42857142857142</ele><time>2026-04-13T10:40:10.415Z</time></trkpt><trkpt lat="43.7572981" lon="11.1826098"><ele>45.714285714285715</ele><time>2026-04-13T10:40:15.415Z</time></trkpt><trkpt lat="43.757258" lon="11.182682"><ele>46.0</ele><time>2026-04-13T10:40:19.404Z</time></trkpt><trkpt lat="43.7572009" lon="11.1827288"><ele>46.0</ele><time>2026-04-13T10:40:24.438Z</time></trkpt><trkpt lat="43.7571311" lon="11.182702"><ele>46.0</ele><time>2026-04-13T10:40:30.415Z</time></trkpt><trkpt lat="43.7570695" lon="11.1826604"><ele>46.0</ele><time>2026-04-13T10:40:38.327Z</time></trkpt><trkpt lat="43.7570164" lon="11.1826124"><ele>46.0</ele><time>2026-04-13T10:40:44.437Z</time></trkpt><trkpt lat="43.7569549" lon="11.1825561"><ele>46.0</ele><time>2026-04-13T10:40:49.437Z</time></trkpt><trkpt lat="43.7568977" lon="11.1824991"><ele>46.0</ele><time>2026-04-13T10:40:53.375Z</time></trkpt><trkpt lat="43.7568301" lon="11.1824501"><ele>46.0</ele><time>2026-04-13T10:40:58.388Z</time></trkpt><trkpt lat="43.7567786" lon="11.1823876"><ele>45.714285714285715</ele><time>2026-04-13T10:41:06.396Z</time></trkpt><trkpt lat="43.7567159" lon="11.1823342"><ele>45.42857142857142</ele><time>2026-04-13T10:41:15.417Z</time></trkpt><trkpt lat="43.7566571" lon="11.182286"><ele>45.14285714285714</ele><time>2026-04-13T10:41:19.439Z</time></trkpt><trkpt lat="43.7565893" lon="11.1822269"><ele>44.85714285714286</ele><time>2026-04-13T10:41:23.46Z</time></trkpt><trkpt lat="43.7565232" lon="11.1821675"><ele>44.57142857142857</ele><time>2026-04-13T10:41:27.375Z</time></trkpt><trkpt lat="43.7564666" lon="11.1821178"><ele>44.285714285714285</ele><time>2026-04-13T10:41:32.376Z</time></trkpt><trkpt lat="43.7564074" lon="11.182068"><ele>44.0</ele><time>2026-04-13T10:41:37.375Z</time></trkpt><trkpt lat="43.7563483" lon="11.1820138"><ele>44.0</ele><time>2026-04-13T10:41:41.397Z</time></trkpt><trkpt lat="43.756283" lon="11.1819737"><ele>44.0</ele><time>2026-04-13T10:41:45.418Z</time></trkpt><trkpt lat="43.7562162" lon="11.1820059"><ele>44.0</ele><time>2026-04-13T10:41:50.418Z</time></trkpt><trkpt lat="43.7561459" lon="11.1820495"><ele>44.0</ele><time>2026-04-13T10:41:55.418Z</time></trkpt><trkpt lat="43.7561008" lon="11.1821178"><ele>44.0</ele><time>2026-04-13T10:41:59.407Z</time></trkpt><trkpt lat="43.7560553" lon="11.1821968"><ele>44.0</ele><time>2026-04-13T10:42:03.461Z</time></trkpt><trkpt lat="43.7560129" lon="11.1822614"><ele>44.0</ele><time>2026-04-13T10:42:06.396Z</time></trkpt><trkpt lat="43.7559712" lon="11.1823478"><ele>44.142857142857146</ele><time>2026-04-13T10:42:09.441Z</time></trkpt><trkpt lat="43.7559405" lon="11.1824436"><ele>44.285714285714285</ele><time>2026-04-13T10:42:13.465Z</time></trkpt><trkpt lat="43.7558957" lon="11.1825199"><ele>44.42857142857143</ele><time>2026-04-13T10:42:18.375Z</time></trkpt><trkpt lat="43.7558855" lon="11.182608"><ele>44.57142857142857</ele><time>2026-04-13T10:42:22.376Z</time></trkpt><trkpt lat="43.7559415" lon="11.1826755"><ele>44.714285714285715</ele><time>2026-04-13T10:42:26.398Z</time></trkpt><trkpt lat="43.7560084" lon="11.1827391"><ele>44.857142857142854</ele><time>2026-04-13T10:42:30.42Z</time></trkpt><trkpt lat="43.7560679" lon="11.1827878"><ele>45.0</ele><time>2026-04-13T10:42:34.442Z</time></trkpt><trkpt lat="43.7561312" lon="11.1828362"><ele>45.14285714285714</ele><time>2026-04-13T10:42:40.421Z</time></trkpt><trkpt lat="43.7561932" lon="11.1828842"><ele>45.28571428571429</ele><time>2026-04-13T10:42:45.363Z</time></trkpt><trkpt lat="43.7562535" lon="11.1829347"><ele>45.42857142857143</ele><time>2026-04-13T10:42:49.442Z</time></trkpt><trkpt lat="43.7563105" lon="11.1829786"><ele>45.57142857142857</ele><time>2026-04-13T10:42:54.443Z</time></trkpt><trkpt lat="43.75638" lon="11.1830359"><ele>45.71428571428571</ele><time>2026-04-13T10:43:00.42Z</time></trkpt><trkpt lat="43.7564295" lon="11.1831027"><ele>45.85714285714286</ele><time>2026-04-13T10:43:05.324Z</time></trkpt><trkpt lat="43.7564818" lon="11.1831523"><ele>46.0</ele><time>2026-04-13T10:43:09.364Z</time></trkpt><trkpt lat="43.756538" lon="11.1831995"><ele>46.285714285714285</ele><time>2026-04-13T10:43:14.442Z</time></trkpt><trkpt lat="43.7566024" lon="11.183252"><ele>46.57142857142857</ele><time>2026-04-13T10:43:23.374Z</time></trkpt><trkpt lat="43.756654" lon="11.1833063"><ele>46.857142857142854</ele><time>2026-04-13T10:43:27.448Z</time></trkpt><trkpt lat="43.7567144" lon="11.1833443"><ele>47.14285714285714</ele><time>2026-04-13T10:43:32.381Z</time></trkpt><trkpt lat="43.7567761" lon="11.1834069"><ele>47.42857142857143</ele><time>2026-04-13T10:43:37.448Z</time></trkpt><trkpt lat="43.7568412" lon="11.1834587"><ele>47.71428571428571</ele><time>2026-04-13T10:43:42.49Z</time></trkpt><trkpt lat="43.7568521" lon="11.1835488"><ele>48.0</ele><time>2026-04-13T10:43:50.424Z</time></trkpt><trkpt lat="43.7568038" lon="11.1836262"><ele>48.0</ele><time>2026-04-13T10:43:59.374Z</time></trkpt><trkpt lat="43.7568214" lon="11.1837433"><ele>48.0</ele><time>2026-04-13T10:44:04.444Z</time></trkpt><trkpt lat="43.7568526" lon="11.1838329"><ele>48.0</ele><time>2026-04-13T10:44:08.463Z</time></trkpt><trkpt lat="43.7568363" lon="11.1839601"><ele>48.0</ele><time>2026-04-13T10:44:13.328Z</time></trkpt><trkpt lat="43.756823" lon="11.1840545"><ele>48.0</ele><time>2026-04-13T10:44:17.38Z</time></trkpt><trkpt lat="43.7567715" lon="11.1841315"><ele>48.0</ele><time>2026-04-13T10:44:20.422Z</time></trkpt><trkpt lat="43.7567108" lon="11.1841885"><ele>47.99999999999999</ele><time>2026-04-13T10:44:23.374Z</time></trkpt><trkpt lat="43.7566524" lon="11.1842327"><ele>48.0</ele><time>2026-04-13T10:44:26.401Z</time></trkpt><trkpt lat="43.7565782" lon="11.184276"><ele>48.0</ele><time>2026-04-13T10:44:30.422Z</time></trkpt><trkpt lat="43.756518" lon="11.1842218"><ele>48.0</ele><time>2026-04-13T10:44:33.466Z</time></trkpt><trkpt lat="43.7564905" lon="11.1841366"><ele>48.0</ele><time>2026-04-13T10:44:37.445Z</time></trkpt><trkpt lat="43.7564345" lon="11.1840656"><ele>47.99999999999999</ele><time>2026-04-13T10:44:42.379Z</time></trkpt><trkpt lat="43.7563714" lon="11.1840005"><ele>48.0</ele><time>2026-04-13T10:44:46.4Z</time></trkpt><trkpt lat="43.7563079" lon="11.183978"><ele>47.99999999999999</ele><time>2026-04-13T10:44:49.445Z</time></trkpt><trkpt lat="43.7562442" lon="11.1839352"><ele>48.0</ele><time>2026-04-13T10:44:53.368Z</time></trkpt><trkpt lat="43.7561816" lon="11.1838805"><ele>48.0</ele><time>2026-04-13T10:44:58.374Z</time></trkpt><trkpt lat="43.7561127" lon="11.1838445"><ele>48.0</ele><time>2026-04-13T10:45:02.378Z</time></trkpt><trkpt lat="43.7560404" lon="11.1838287"><ele>48.0</ele><time>2026-04-13T10:45:06.367Z</time></trkpt><trkpt lat="43.755972" lon="11.1838528"><ele>47.99999999999999</ele><time>2026-04-13T10:45:11.4Z</time></trkpt><trkpt lat="43.7559001" lon="11.1838024"><ele>48.0</ele><time>2026-04-13T10:45:16.4Z</time></trkpt><trkpt lat="43.7558406" lon="11.1837491"><ele>47.857142857142854</ele><time>2026-04-13T10:45:21.323Z</time></trkpt><trkpt lat="43.7557837" lon="11.1837061"><ele>47.714285714285715</ele><time>2026-04-13T10:45:29.443Z</time></trkpt><trkpt lat="43.7557231" lon="11.1836614"><ele>47.57142857142857</ele><time>2026-04-13T10:45:34.444Z</time></trkpt><trkpt lat="43.7556608" lon="11.1836106"><ele>47.42857142857143</ele><time>2026-04-13T10:45:38.465Z</time></trkpt><trkpt lat="43.7556036" lon="11.1835511"><ele>47.285714285714285</ele><time>2026-04-13T10:45:44.443Z</time></trkpt><trkpt lat="43.7555431" lon="11.1835075"><ele>47.14285714285714</ele><time>2026-04-13T10:45:49.443Z</time></trkpt><trkpt lat="43.7554738" lon="11.1834528"><ele>47.0</ele><time>2026-04-13T10:45:53.465Z</time></trkpt><trkpt lat="43.7554139" lon="11.1834089"><ele>47.0</ele><time>2026-04-13T10:45:56.4Z</time></trkpt><trkpt lat="43.7553484" lon="11.1833591"><ele>47.0</ele><time>2026-04-13T10:46:01.4Z</time></trkpt><trkpt lat="43.755285" lon="11.183302"><ele>47.0</ele><time>2026-04-13T10:46:06.4Z</time></trkpt><trkpt lat="43.7552216" lon="11.1832482"><ele>47.0</ele><time>2026-04-13T10:46:10.421Z</time></trkpt><trkpt lat="43.7551653" lon="11.1832001"><ele>47.0</ele><time>2026-04-13T10:46:15.422Z</time></trkpt><trkpt lat="43.7551063" lon="11.1831612"><ele>47.0</ele><time>2026-04-13T10:46:21.399Z</time></trkpt><trkpt lat="43.7550512" lon="11.183119"><ele>47.0</ele><time>2026-04-13T10:46:27.444Z</time></trkpt><trkpt lat="43.7549936" lon="11.1830662"><ele>46.857142857142854</ele><time>2026-04-13T10:46:33.374Z</time></trkpt><trkpt lat="43.7549328" lon="11.1830123"><ele>46.71428571428571</ele><time>2026-04-13T10:46:37.377Z</time></trkpt><trkpt lat="43.7548732" lon="11.1829634"><ele>46.57142857142857</ele><time>2026-04-13T10:46:41.399Z</time></trkpt><trkpt lat="43.7548137" lon="11.1829197"><ele>46.42857142857143</ele><time>2026-04-13T10:46:46.399Z</time></trkpt><trkpt lat="43.7547506" lon="11.182909"><ele>46.285714285714285</ele><time>2026-04-13T10:46:51.386Z</time></trkpt><trkpt lat="43.7546813" lon="11.1829319"><ele>46.142857142857146</ele><time>2026-04-13T10:46:57.463Z</time></trkpt><trkpt lat="43.7546225" lon="11.18301"><ele>46.0</ele><time>2026-04-13T10:47:01.399Z</time></trkpt><trkpt lat="43.7545751" lon="11.1830884"><ele>46.0</ele><time>2026-04-13T10:47:05.383Z</time></trkpt><trkpt lat="43.7545293" lon="11.1831525"><ele>46.0</ele><time>2026-04-13T10:47:10.422Z</time></trkpt><trkpt lat="43.754471" lon="11.1832034"><ele>46.0</ele><time>2026-04-13T10:47:16.366Z</time></trkpt><trkpt lat="43.7544065" lon="11.1832742"><ele>46.0</ele><time>2026-04-13T10:47:22.378Z</time></trkpt><trkpt lat="43.7543493" lon="11.1833469"><ele>46.0</ele><time>2026-04-13T10:47:27.483Z</time></trkpt><trkpt lat="43.7542963" lon="11.1834055"><ele>46.0</ele><time>2026-04-13T10:47:31.986Z</time></trkpt><trkpt lat="43.7542509" lon="11.1834699"><ele>46.0</ele><time>2026-04-13T10:47:36.347Z</time></trkpt><trkpt lat="43.7542106" lon="11.1835441"><ele>46.142857142857146</ele><time>2026-04-13T10:47:40.364Z</time></trkpt><trkpt lat="43.7541565" lon="11.1836077"><ele>46.285714285714285</ele><time>2026-04-13T10:47:44.443Z</time></trkpt><trkpt lat="43.7541121" lon="11.1836734"><ele>46.42857142857143</ele><time>2026-04-13T10:47:49.444Z</time></trkpt><trkpt lat="43.7540701" lon="11.1837468"><ele>46.57142857142857</ele><time>2026-04-13T10:47:54.441Z</time></trkpt><trkpt lat="43.7540323" lon="11.1838342"><ele>46.71428571428571</ele><time>2026-04-13T10:47:59.441Z</time></trkpt><trkpt lat="43.7540045" lon="11.1839182"><ele>46.857142857142854</ele><time>2026-04-13T10:48:04.44Z</time></trkpt><trkpt lat="43.753927" lon="11.1839916"><ele>47.0</ele><time>2026-04-13T10:48:09.44Z</time></trkpt><trkpt lat="43.7538917" lon="11.1840645"><ele>47.14285714285714</ele><time>2026-04-13T10:48:13.425Z</time></trkpt><trkpt lat="43.7538785" lon="11.1841622"><ele>47.285714285714285</ele><time>2026-04-13T10:48:21.395Z</time></trkpt><trkpt lat="43.7538867" lon="11.1842591"><ele>47.42857142857143</ele><time>2026-04-13T10:48:25.416Z</time></trkpt><trkpt lat="43.7538731" lon="11.1843536"><ele>47.57142857142857</ele><time>2026-04-13T10:48:30.415Z</time></trkpt><trkpt lat="43.7539156" lon="11.1844212"><ele>47.714285714285715</ele><time>2026-04-13T10:48:37.481Z</time></trkpt><trkpt lat="43.7539736" lon="11.1844881"><ele>47.857142857142854</ele><time>2026-04-13T10:48:42.374Z</time></trkpt><trkpt lat="43.7540278" lon="11.1845555"><ele>48.0</ele><time>2026-04-13T10:48:46.392Z</time></trkpt><trkpt lat="43.7540818" lon="11.1846135"><ele>48.0</ele><time>2026-04-13T10:48:50.413Z</time></trkpt><trkpt lat="43.7541347" lon="11.1846883"><ele>48.0</ele><time>2026-04-13T10:48:56.447Z</time></trkpt><trkpt lat="43.7541877" lon="11.1847518"><ele>48.0</ele><time>2026-04-13T10:49:01.39Z</time></trkpt><trkpt lat="43.7542319" lon="11.1848341"><ele>48.0</ele><time>2026-04-13T10:49:06.39Z</time></trkpt><trkpt lat="43.7542795" lon="11.1849234"><ele>48.0</ele><time>2026-04-13T10:49:11.467Z</time></trkpt><trkpt lat="43.754348" lon="11.1849776"><ele>48.0</ele><time>2026-04-13T10:49:17.373Z</time></trkpt><trkpt lat="43.7544186" lon="11.1850143"><ele>47.857142857142854</ele><time>2026-04-13T10:49:22.289Z</time></trkpt><trkpt lat="43.7544717" lon="11.1850766"><ele>47.714285714285715</ele><time>2026-04-13T10:49:27.374Z</time></trkpt><trkpt lat="43.7545255" lon="11.1851557"><ele>47.57142857142857</ele><time>2026-04-13T10:49:32.374Z</time></trkpt><trkpt lat="43.7545776" lon="11.1852289"><ele>47.42857142857143</ele><time>2026-04-13T10:49:36.389Z</time></trkpt><trkpt lat="43.7546285" lon="11.1852983"><ele>47.285714285714285</ele><time>2026-04-13T10:49:40.383Z</time></trkpt><trkpt lat="43.7546788" lon="11.1853672"><ele>47.14285714285714</ele><time>2026-04-13T10:49:45.412Z</time></trkpt><trkpt lat="43.7547301" lon="11.1854269"><ele>47.0</ele><time>2026-04-13T10:49:50.411Z</time></trkpt><trkpt lat="43.7547835" lon="11.1854876"><ele>47.0</ele><time>2026-04-13T10:49:54.432Z</time></trkpt><trkpt lat="43.7548437" lon="11.1855143"><ele>47.0</ele><time>2026-04-13T10:49:59.432Z</time></trkpt><trkpt lat="43.7549055" lon="11.1855599"><ele>47.0</ele><time>2026-04-13T10:50:04.424Z</time></trkpt><trkpt lat="43.7550109" lon="11.1855902"><ele>47.0</ele><time>2026-04-13T10:50:23.385Z</time></trkpt><trkpt lat="43.7550717" lon="11.1856253"><ele>47.0</ele><time>2026-04-13T10:50:33.451Z</time></trkpt><trkpt lat="43.7551215" lon="11.1856892"><ele>47.0</ele><time>2026-04-13T10:50:38.45Z</time></trkpt><trkpt lat="43.7551586" lon="11.1857603"><ele>47.0</ele><time>2026-04-13T10:50:42.473Z</time></trkpt><trkpt lat="43.7552331" lon="11.1857773"><ele>47.0</ele><time>2026-04-13T10:50:46.384Z</time></trkpt><trkpt lat="43.7553082" lon="11.1858208"><ele>47.0</ele><time>2026-04-13T10:50:51.384Z</time></trkpt><trkpt lat="43.7553692" lon="11.1857888"><ele>47.0</ele><time>2026-04-13T10:50:52.471Z</time></trkpt><trkpt lat="43.7554497" lon="11.1857895"><ele>47.0</ele><time>2026-04-13T10:50:55.405Z</time></trkpt><trkpt lat="43.7555135" lon="11.1858404"><ele>47.0</ele><time>2026-04-13T10:50:58.448Z</time></trkpt><trkpt lat="43.755565" lon="11.185899"><ele>47.0</ele><time>2026-04-13T10:51:01.306Z</time></trkpt><trkpt lat="43.7555801" lon="11.1859891"><ele>47.0</ele><time>2026-04-13T10:51:04.425Z</time></trkpt><trkpt lat="43.7555898" lon="11.1860799"><ele>47.0</ele><time>2026-04-13T10:51:07.468Z</time></trkpt><trkpt lat="43.7555796" lon="11.1861736"><ele>47.0</ele><time>2026-04-13T10:51:09.447Z</time></trkpt><trkpt lat="43.7555839" lon="11.1862782"><ele>47.0</ele><time>2026-04-13T10:51:13.446Z</time></trkpt><trkpt lat="43.7556008" lon="11.1863624"><ele>47.0</ele><time>2026-04-13T10:51:22.404Z</time></trkpt><trkpt lat="43.75556" lon="11.1864532"><ele>47.0</ele><time>2026-04-13T10:51:41.486Z</time></trkpt><trkpt lat="43.7555154" lon="11.186522"><ele>47.0</ele><time>2026-04-13T10:51:45.405Z</time></trkpt><trkpt lat="43.7554693" lon="11.1865973"><ele>47.0</ele><time>2026-04-13T10:51:48.441Z</time></trkpt><trkpt lat="43.7554204" lon="11.1866774"><ele>47.0</ele><time>2026-04-13T10:51:52.462Z</time></trkpt><trkpt lat="43.7553297" lon="11.1868777"><ele>47.0</ele><time>2026-04-13T10:51:55.364Z</time></trkpt><trkpt lat="43.7552951" lon="11.1869699"><ele>47.0</ele><time>2026-04-13T10:51:56.426Z</time></trkpt><trkpt lat="43.7552632" lon="11.1870643"><ele>47.0</ele><time>2026-04-13T10:52:00.396Z</time></trkpt><trkpt lat="43.7551887" lon="11.1870201"><ele>47.0</ele><time>2026-04-13T10:52:23.436Z</time></trkpt><trkpt lat="43.7551274" lon="11.1869469"><ele>47.166666666666664</ele><time>2026-04-13T10:52:28.364Z</time></trkpt><trkpt lat="43.7550808" lon="11.1868406"><ele>47.33333333333333</ele><time>2026-04-13T10:52:32.726Z</time></trkpt><trkpt lat="43.7550226" lon="11.1867835"><ele>47.5</ele><time>2026-04-13T10:52:35.887Z</time></trkpt><trkpt lat="43.7549624" lon="11.1867237"><ele>47.666666666666664</ele><time>2026-04-13T10:52:39.228Z</time></trkpt><trkpt lat="43.7549096" lon="11.1866588"><ele>47.833333333333336</ele><time>2026-04-13T10:52:42.384Z</time></trkpt><trkpt lat="43.7548455" lon="11.1865984"><ele>48.0</ele><time>2026-04-13T10:52:46.478Z</time></trkpt><trkpt lat="43.7547871" lon="11.1865422"><ele>47.857142857142854</ele><time>2026-04-13T10:52:50.486Z</time></trkpt><trkpt lat="43.7547295" lon="11.1864747"><ele>47.714285714285715</ele><time>2026-04-13T10:52:55.391Z</time></trkpt><trkpt lat="43.7546794" lon="11.1864213"><ele>47.57142857142857</ele><time>2026-04-13T10:53:00.5Z</time></trkpt><trkpt lat="43.754612" lon="11.1863839"><ele>47.42857142857143</ele><time>2026-04-13T10:53:06.477Z</time></trkpt><trkpt lat="43.7545559" lon="11.1863379"><ele>47.285714285714285</ele><time>2026-04-13T10:53:12.455Z</time></trkpt><trkpt lat="43.7544906" lon="11.1863146"><ele>47.14285714285714</ele><time>2026-04-13T10:53:18.434Z</time></trkpt><trkpt lat="43.7544377" lon="11.1862441"><ele>47.0</ele><time>2026-04-13T10:53:23.433Z</time></trkpt><trkpt lat="43.7543802" lon="11.1861886"><ele>47.0</ele><time>2026-04-13T10:53:28.434Z</time></trkpt><trkpt lat="43.7543267" lon="11.1861298"><ele>47.0</ele><time>2026-04-13T10:53:32.454Z</time></trkpt><trkpt lat="43.7542719" lon="11.1860828"><ele>47.0</ele><time>2026-04-13T10:53:36.463Z</time></trkpt><trkpt lat="43.7542122" lon="11.1860369"><ele>47.0</ele><time>2026-04-13T10:53:41.468Z</time></trkpt><trkpt lat="43.7541533" lon="11.1859794"><ele>47.0</ele><time>2026-04-13T10:53:46.383Z</time></trkpt><trkpt lat="43.7540981" lon="11.1859167"><ele>47.0</ele><time>2026-04-13T10:53:51.487Z</time></trkpt><trkpt lat="43.7540424" lon="11.1858586"><ele>47.0</ele><time>2026-04-13T10:53:57.453Z</time></trkpt><trkpt lat="43.7539826" lon="11.1858018"><ele>47.0</ele><time>2026-04-13T10:54:03.431Z</time></trkpt><trkpt lat="43.7539297" lon="11.1857509"><ele>47.0</ele><time>2026-04-13T10:54:08.431Z</time></trkpt><trkpt lat="43.7538772" lon="11.1857018"><ele>47.0</ele><time>2026-04-13T10:54:14.409Z</time></trkpt><trkpt lat="43.753818" lon="11.1856455"><ele>47.0</ele><time>2026-04-13T10:54:18.404Z</time></trkpt><trkpt lat="43.7537652" lon="11.1855913"><ele>47.0</ele><time>2026-04-13T10:54:23.404Z</time></trkpt><trkpt lat="43.7537122" lon="11.1855252"><ele>47.0</ele><time>2026-04-13T10:54:29.447Z</time></trkpt><trkpt lat="43.7536327" lon="11.1855089"><ele>47.0</ele><time>2026-04-13T10:54:34.965Z</time></trkpt><trkpt lat="43.7535767" lon="11.1854581"><ele>47.0</ele><time>2026-04-13T10:54:39.427Z</time></trkpt><trkpt lat="43.7535258" lon="11.1853973"><ele>47.0</ele><time>2026-04-13T10:54:45.49Z</time></trkpt><trkpt lat="43.7534453" lon="11.1853191"><ele>47.0</ele><time>2026-04-13T10:54:53.827Z</time></trkpt><trkpt lat="43.7533729" lon="11.1852532"><ele>47.0</ele><time>2026-04-13T10:54:59.104Z</time></trkpt><trkpt lat="43.7533111" lon="11.1851936"><ele>47.0</ele><time>2026-04-13T10:55:03.446Z</time></trkpt><trkpt lat="43.7532585" lon="11.18514"><ele>47.0</ele><time>2026-04-13T10:55:08.424Z</time></trkpt><trkpt lat="43.7531997" lon="11.1852137"><ele>47.0</ele><time>2026-04-13T10:55:15.428Z</time></trkpt><trkpt lat="43.7531569" lon="11.1853025"><ele>47.0</ele><time>2026-04-13T10:55:20.381Z</time></trkpt><trkpt lat="43.7531008" lon="11.185363"><ele>47.0</ele><time>2026-04-13T10:55:23.425Z</time></trkpt><trkpt lat="43.7530671" lon="11.1854383"><ele>47.0</ele><time>2026-04-13T10:55:26.373Z</time></trkpt><trkpt lat="43.7530274" lon="11.185511"><ele>47.0</ele><time>2026-04-13T10:55:30.573Z</time></trkpt><trkpt lat="43.7529903" lon="11.1855816"><ele>47.0</ele><time>2026-04-13T10:55:34.867Z</time></trkpt><trkpt lat="43.752951" lon="11.185669"><ele>47.0</ele><time>2026-04-13T10:55:39.285Z</time></trkpt><trkpt lat="43.7529237" lon="11.185759"><ele>47.0</ele><time>2026-04-13T10:55:43.425Z</time></trkpt><trkpt lat="43.7528798" lon="11.1858355"><ele>47.0</ele><time>2026-04-13T10:55:48.425Z</time></trkpt><trkpt lat="43.7529002" lon="11.1859291"><ele>47.0</ele><time>2026-04-13T10:55:52.447Z</time></trkpt><trkpt lat="43.7529243" lon="11.1860114"><ele>47.0</ele><time>2026-04-13T10:56:00.404Z</time></trkpt><trkpt lat="43.7528504" lon="11.1860338"><ele>47.0</ele><time>2026-04-13T10:56:05.463Z</time></trkpt><trkpt lat="43.752777" lon="11.1860006"><ele>47.0</ele><time>2026-04-13T10:56:09.404Z</time></trkpt><trkpt lat="43.7527102" lon="11.1859766"><ele>47.0</ele><time>2026-04-13T10:56:14.47Z</time></trkpt><trkpt lat="43.7526443" lon="11.1859843"><ele>47.14285714285714</ele><time>2026-04-13T10:56:19.404Z</time></trkpt><trkpt lat="43.7525761" lon="11.1859994"><ele>47.285714285714285</ele><time>2026-04-13T10:56:23.426Z</time></trkpt><trkpt lat="43.7525047" lon="11.1860137"><ele>47.42857142857143</ele><time>2026-04-13T10:56:29.405Z</time></trkpt><trkpt lat="43.7524815" lon="11.1860992"><ele>47.57142857142857</ele><time>2026-04-13T10:56:35.383Z</time></trkpt><trkpt lat="43.7524653" lon="11.1861934"><ele>47.714285714285715</ele><time>2026-04-13T10:56:43.428Z</time></trkpt><trkpt lat="43.7524651" lon="11.1862886"><ele>47.857142857142854</ele><time>2026-04-13T10:56:48.365Z</time></trkpt><trkpt lat="43.7524614" lon="11.1863808"><ele>48.0</ele><time>2026-04-13T10:56:52.449Z</time></trkpt><trkpt lat="43.752466" lon="11.1864795"><ele>47.857142857142854</ele><time>2026-04-13T10:56:56.372Z</time></trkpt><trkpt lat="43.7524551" lon="11.1865741"><ele>47.714285714285715</ele><time>2026-04-13T10:57:00.384Z</time></trkpt><trkpt lat="43.7524236" lon="11.1866553"><ele>47.57142857142857</ele><time>2026-04-13T10:57:05.384Z</time></trkpt><trkpt lat="43.752383" lon="11.1867354"><ele>47.42857142857143</ele><time>2026-04-13T10:57:11.471Z</time></trkpt><trkpt lat="43.7523398" lon="11.1868167"><ele>47.285714285714285</ele><time>2026-04-13T10:57:17.45Z</time></trkpt><trkpt lat="43.752305" lon="11.1869046"><ele>47.14285714285714</ele><time>2026-04-13T10:57:22.45Z</time></trkpt><trkpt lat="43.7522634" lon="11.1869851"><ele>47.0</ele><time>2026-04-13T10:57:26.29Z</time></trkpt><trkpt lat="43.7522247" lon="11.1870579"><ele>47.0</ele><time>2026-04-13T10:57:30.385Z</time></trkpt><trkpt lat="43.7521812" lon="11.187139"><ele>47.0</ele><time>2026-04-13T10:57:35.385Z</time></trkpt><trkpt lat="43.7521366" lon="11.1872201"><ele>47.0</ele><time>2026-04-13T10:57:40.385Z</time></trkpt><trkpt lat="43.7520927" lon="11.1872999"><ele>47.0</ele><time>2026-04-13T10:57:45.385Z</time></trkpt><trkpt lat="43.7521376" lon="11.1873771"><ele>47.0</ele><time>2026-04-13T10:57:53.429Z</time></trkpt><trkpt lat="43.7522092" lon="11.187442"><ele>47.0</ele><time>2026-04-13T10:57:58.429Z</time></trkpt><trkpt lat="43.7522531" lon="11.1875061"><ele>47.0</ele><time>2026-04-13T10:58:01.372Z</time></trkpt><trkpt lat="43.7522527" lon="11.187597"><ele>47.0</ele><time>2026-04-13T10:58:06.372Z</time></trkpt><trkpt lat="43.7522682" lon="11.1876871"><ele>47.0</ele><time>2026-04-13T10:58:11.372Z</time></trkpt><trkpt lat="43.7523122" lon="11.1877616"><ele>47.0</ele><time>2026-04-13T10:58:15.386Z</time></trkpt><trkpt lat="43.752357" lon="11.1878383"><ele>47.0</ele><time>2026-04-13T10:58:20.387Z</time></trkpt><trkpt lat="43.7524102" lon="11.187915"><ele>47.0</ele><time>2026-04-13T10:58:25.386Z</time></trkpt><trkpt lat="43.75243" lon="11.1880095"><ele>47.0</ele><time>2026-04-13T10:58:30.344Z</time></trkpt><trkpt lat="43.752471" lon="11.1880857"><ele>47.0</ele><time>2026-04-13T10:58:37.451Z</time></trkpt><trkpt lat="43.7525132" lon="11.1881685"><ele>47.0</ele><time>2026-04-13T10:58:42.345Z</time></trkpt><trkpt lat="43.7525523" lon="11.1882407"><ele>47.0</ele><time>2026-04-13T10:58:46.473Z</time></trkpt><trkpt lat="43.7525917" lon="11.1883177"><ele>47.0</ele><time>2026-04-13T10:58:50.386Z</time></trkpt><trkpt lat="43.7526301" lon="11.1883975"><ele>47.0</ele><time>2026-04-13T10:58:55.386Z</time></trkpt><trkpt lat="43.7526726" lon="11.1884734"><ele>47.0</ele><time>2026-04-13T10:59:01.372Z</time></trkpt><trkpt lat="43.7527107" lon="11.1885516"><ele>47.0</ele><time>2026-04-13T10:59:06.372Z</time></trkpt><trkpt lat="43.7527328" lon="11.1886427"><ele>47.0</ele><time>2026-04-13T10:59:12.484Z</time></trkpt><trkpt lat="43.7527845" lon="11.1887042"><ele>47.0</ele><time>2026-04-13T10:59:18.43Z</time></trkpt><trkpt lat="43.7528229" lon="11.1887907"><ele>47.0</ele><time>2026-04-13T10:59:24.408Z</time></trkpt><trkpt lat="43.7528589" lon="11.1888637"><ele>47.0</ele><time>2026-04-13T10:59:29.408Z</time></trkpt><trkpt lat="43.7528985" lon="11.1889393"><ele>47.0</ele><time>2026-04-13T10:59:35.387Z</time></trkpt><trkpt lat="43.7529383" lon="11.189013"><ele>47.0</ele><time>2026-04-13T10:59:41.372Z</time></trkpt><trkpt lat="43.7529836" lon="11.1890955"><ele>47.0</ele><time>2026-04-13T10:59:46.372Z</time></trkpt><trkpt lat="43.7530279" lon="11.1891869"><ele>47.0</ele><time>2026-04-13T10:59:51.372Z</time></trkpt><trkpt lat="43.7530684" lon="11.1892669"><ele>47.285714285714285</ele><time>2026-04-13T10:59:58.432Z</time></trkpt><trkpt lat="43.7531101" lon="11.1893534"><ele>47.57142857142857</ele><time>2026-04-13T11:00:04.409Z</time></trkpt><trkpt lat="43.7531481" lon="11.1894251"><ele>47.85714285714286</ele><time>2026-04-13T11:00:11.487Z</time></trkpt><trkpt lat="43.7531847" lon="11.1895052"><ele>48.14285714285714</ele><time>2026-04-13T11:00:16.372Z</time></trkpt><trkpt lat="43.753223" lon="11.1895885"><ele>48.42857142857143</ele><time>2026-04-13T11:00:20.444Z</time></trkpt><trkpt lat="43.7532638" lon="11.1896632"><ele>48.714285714285715</ele><time>2026-04-13T11:00:24.41Z</time></trkpt><trkpt lat="43.7533041" lon="11.1897377"><ele>49.0</ele><time>2026-04-13T11:00:29.447Z</time></trkpt><trkpt lat="43.7533459" lon="11.1898073"><ele>49.0</ele><time>2026-04-13T11:00:33.433Z</time></trkpt><trkpt lat="43.7533893" lon="11.1898788"><ele>49.0</ele><time>2026-04-13T11:00:37.372Z</time></trkpt><trkpt lat="43.7534485" lon="11.189932"><ele>49.0</ele><time>2026-04-13T11:00:44.411Z</time></trkpt><trkpt lat="43.7534755" lon="11.190021"><ele>49.0</ele><time>2026-04-13T11:00:49.411Z</time></trkpt><trkpt lat="43.7535171" lon="11.1900951"><ele>49.0</ele><time>2026-04-13T11:00:55.389Z</time></trkpt><trkpt lat="43.7535528" lon="11.1901678"><ele>49.0</ele><time>2026-04-13T11:01:00.389Z</time></trkpt><trkpt lat="43.7535893" lon="11.1902446"><ele>49.0</ele><time>2026-04-13T11:01:04.467Z</time></trkpt><trkpt lat="43.7536348" lon="11.1903213"><ele>48.714285714285715</ele><time>2026-04-13T11:01:09.412Z</time></trkpt><trkpt lat="43.7536699" lon="11.1903942"><ele>48.42857142857143</ele><time>2026-04-13T11:01:13.433Z</time></trkpt><trkpt lat="43.7537084" lon="11.1904787"><ele>48.14285714285714</ele><time>2026-04-13T11:01:18.433Z</time></trkpt><trkpt lat="43.7537466" lon="11.1905503"><ele>47.85714285714286</ele><time>2026-04-13T11:01:24.411Z</time></trkpt><trkpt lat="43.7538093" lon="11.1905989"><ele>47.57142857142857</ele><time>2026-04-13T11:01:33.448Z</time></trkpt><trkpt lat="43.7538852" lon="11.190558"><ele>47.285714285714285</ele><time>2026-04-13T11:01:41.291Z</time></trkpt><trkpt lat="43.7539314" lon="11.1904673"><ele>47.0</ele><time>2026-04-13T11:01:45.327Z</time></trkpt><trkpt lat="43.7539808" lon="11.1903968"><ele>47.0</ele><time>2026-04-13T11:01:49.411Z</time></trkpt><trkpt lat="43.7540334" lon="11.1903298"><ele>47.0</ele><time>2026-04-13T11:01:55.39Z</time></trkpt><trkpt lat="43.7540849" lon="11.1902743"><ele>47.0</ele><time>2026-04-13T11:02:00.389Z</time></trkpt><trkpt lat="43.7541383" lon="11.1902168"><ele>47.0</ele><time>2026-04-13T11:02:05.389Z</time></trkpt><trkpt lat="43.7541998" lon="11.1901484"><ele>47.0</ele><time>2026-04-13T11:02:10.389Z</time></trkpt><trkpt lat="43.7542553" lon="11.1900817"><ele>47.0</ele><time>2026-04-13T11:02:14.411Z</time></trkpt><trkpt lat="43.754324" lon="11.190047"><ele>47.0</ele><time>2026-04-13T11:02:20.389Z</time></trkpt><trkpt lat="43.7543939" lon="11.1900729"><ele>46.857142857142854</ele><time>2026-04-13T11:02:30.389Z</time></trkpt><trkpt lat="43.7544592" lon="11.1901185"><ele>46.71428571428571</ele><time>2026-04-13T11:02:35.326Z</time></trkpt><trkpt lat="43.7545231" lon="11.1901617"><ele>46.57142857142857</ele><time>2026-04-13T11:02:40.389Z</time></trkpt><trkpt lat="43.7545701" lon="11.1902231"><ele>46.42857142857143</ele><time>2026-04-13T11:02:49.412Z</time></trkpt><trkpt lat="43.7546337" lon="11.1901511"><ele>46.285714285714285</ele><time>2026-04-13T11:02:54.411Z</time></trkpt><trkpt lat="43.7546763" lon="11.1900811"><ele>46.142857142857146</ele><time>2026-04-13T11:02:57.303Z</time></trkpt><trkpt lat="43.7547167" lon="11.190003"><ele>46.0</ele><time>2026-04-13T11:03:02.371Z</time></trkpt><trkpt lat="43.7547643" lon="11.1899372"><ele>46.0</ele><time>2026-04-13T11:03:08.326Z</time></trkpt><trkpt lat="43.7548108" lon="11.1898633"><ele>46.0</ele><time>2026-04-13T11:03:15.389Z</time></trkpt><trkpt lat="43.7548569" lon="11.189789"><ele>46.0</ele><time>2026-04-13T11:03:20.39Z</time></trkpt><trkpt lat="43.7549053" lon="11.1897147"><ele>46.0</ele><time>2026-04-13T11:03:26.371Z</time></trkpt><trkpt lat="43.7549459" lon="11.1896446"><ele>46.0</ele><time>2026-04-13T11:03:31.372Z</time></trkpt><trkpt lat="43.7549902" lon="11.1895739"><ele>46.0</ele><time>2026-04-13T11:03:35.466Z</time></trkpt><trkpt lat="43.7550538" lon="11.1895314"><ele>46.0</ele><time>2026-04-13T11:03:40.389Z</time></trkpt><trkpt lat="43.7551282" lon="11.1895443"><ele>46.0</ele><time>2026-04-13T11:03:49.412Z</time></trkpt><trkpt lat="43.7551616" lon="11.189621"><ele>46.0</ele><time>2026-04-13T11:03:52.454Z</time></trkpt><trkpt lat="43.7552174" lon="11.189711"><ele>46.0</ele><time>2026-04-13T11:03:56.371Z</time></trkpt><trkpt lat="43.7552682" lon="11.1897779"><ele>46.0</ele><time>2026-04-13T11:04:00.389Z</time></trkpt><trkpt lat="43.7553175" lon="11.1898433"><ele>46.0</ele><time>2026-04-13T11:04:05.389Z</time></trkpt><trkpt lat="43.7553699" lon="11.1899026"><ele>46.0</ele><time>2026-04-13T11:04:10.389Z</time></trkpt><trkpt lat="43.7554137" lon="11.189966"><ele>46.0</ele><time>2026-04-13T11:04:15.389Z</time></trkpt><trkpt lat="43.7554645" lon="11.1900464"><ele>46.142857142857146</ele><time>2026-04-13T11:04:20.389Z</time></trkpt><trkpt lat="43.7555121" lon="11.1901063"><ele>46.285714285714285</ele><time>2026-04-13T11:04:24.407Z</time></trkpt><trkpt lat="43.755562" lon="11.1901787"><ele>46.42857142857143</ele><time>2026-04-13T11:04:29.41Z</time></trkpt><trkpt lat="43.7556105" lon="11.1902517"><ele>46.57142857142857</ele><time>2026-04-13T11:04:34.364Z</time></trkpt><trkpt lat="43.7556566" lon="11.1903272"><ele>46.71428571428571</ele><time>2026-04-13T11:04:39.41Z</time></trkpt><trkpt lat="43.7557042" lon="11.1904008"><ele>46.857142857142854</ele><time>2026-04-13T11:04:44.41Z</time></trkpt><trkpt lat="43.7557491" lon="11.1904632"><ele>47.0</ele><time>2026-04-13T11:04:49.41Z</time></trkpt><trkpt lat="43.7558057" lon="11.1905027"><ele>47.0</ele><time>2026-04-13T11:04:55.388Z</time></trkpt><trkpt lat="43.7558624" lon="11.1905521"><ele>47.0</ele><time>2026-04-13T11:05:02.329Z</time></trkpt><trkpt lat="43.7559172" lon="11.1904848"><ele>47.0</ele><time>2026-04-13T11:05:10.385Z</time></trkpt><trkpt lat="43.7559619" lon="11.1904226"><ele>47.0</ele><time>2026-04-13T11:05:14.409Z</time></trkpt><trkpt lat="43.7560254" lon="11.1903592"><ele>47.0</ele><time>2026-04-13T11:05:19.446Z</time></trkpt><trkpt lat="43.7560718" lon="11.1902886"><ele>47.0</ele><time>2026-04-13T11:05:23.326Z</time></trkpt><trkpt lat="43.75613" lon="11.1902243"><ele>47.0</ele><time>2026-04-13T11:05:28.432Z</time></trkpt><trkpt lat="43.7561738" lon="11.1901608"><ele>47.0</ele><time>2026-04-13T11:05:32.405Z</time></trkpt><trkpt lat="43.7562284" lon="11.190084"><ele>47.0</ele><time>2026-04-13T11:05:38.431Z</time></trkpt><trkpt lat="43.7562764" lon="11.1900091"><ele>47.0</ele><time>2026-04-13T11:05:42.405Z</time></trkpt><trkpt lat="43.7563269" lon="11.1899497"><ele>47.0</ele><time>2026-04-13T11:05:46.474Z</time></trkpt><trkpt lat="43.7563807" lon="11.1898909"><ele>47.0</ele><time>2026-04-13T11:05:53.431Z</time></trkpt><trkpt lat="43.7564097" lon="11.1898071"><ele>47.0</ele><time>2026-04-13T11:06:00.388Z</time></trkpt><trkpt lat="43.7563861" lon="11.1897178"><ele>47.0</ele><time>2026-04-13T11:06:09.347Z</time></trkpt><trkpt lat="43.7563411" lon="11.1896494"><ele>49.0</ele><time>2026-04-13T11:06:14.408Z</time></trkpt><trkpt lat="43.7567548" lon="11.1883728"><ele>49.0</ele><time>2026-04-13T11:07:43.429Z</time></trkpt><trkpt lat="43.7567882" lon="11.1882944"><ele>49.0</ele><time>2026-04-13T11:07:48.43Z</time></trkpt><trkpt lat="43.7568307" lon="11.1882106"><ele>49.0</ele><time>2026-04-13T11:07:54.408Z</time></trkpt><trkpt lat="43.7568679" lon="11.1881399"><ele>49.0</ele><time>2026-04-13T11:07:58.43Z</time></trkpt><trkpt lat="43.7569109" lon="11.1880542"><ele>49.0</ele><time>2026-04-13T11:08:03.43Z</time></trkpt><trkpt lat="43.7569548" lon="11.1879759"><ele>49.0</ele><time>2026-04-13T11:08:09.409Z</time></trkpt><trkpt lat="43.757019" lon="11.1879455"><ele>49.0</ele><time>2026-04-13T11:08:15.388Z</time></trkpt><trkpt lat="43.7570724" lon="11.1878923"><ele>48.42857142857143</ele><time>2026-04-13T11:08:25.384Z</time></trkpt><trkpt lat="43.7570508" lon="11.1878034"><ele>47.85714285714286</ele><time>2026-04-13T11:08:30.384Z</time></trkpt><trkpt lat="43.7570605" lon="11.1877168"><ele>47.285714285714285</ele><time>2026-04-13T11:08:34.406Z</time></trkpt><trkpt lat="43.7570891" lon="11.1876332"><ele>46.714285714285715</ele><time>2026-04-13T11:08:39.406Z</time></trkpt><trkpt lat="43.7571093" lon="11.1875471"><ele>46.142857142857146</ele><time>2026-04-13T11:08:44.407Z</time></trkpt><trkpt lat="43.7571404" lon="11.1874507"><ele>45.57142857142857</ele><time>2026-04-13T11:08:49.408Z</time></trkpt><trkpt lat="43.7571749" lon="11.1873566"><ele>45.0</ele><time>2026-04-13T11:08:54.408Z</time></trkpt><trkpt lat="43.7571991" lon="11.1872709"><ele>44.714285714285715</ele><time>2026-04-13T11:08:58.43Z</time></trkpt><trkpt lat="43.7572286" lon="11.1871895"><ele>44.42857142857143</ele><time>2026-04-13T11:09:02.452Z</time></trkpt><trkpt lat="43.7572544" lon="11.1870941"><ele>44.142857142857146</ele><time>2026-04-13T11:09:07.452Z</time></trkpt><trkpt lat="43.7572786" lon="11.1870029"><ele>43.85714285714286</ele><time>2026-04-13T11:09:13.431Z</time></trkpt><trkpt lat="43.7573057" lon="11.1869221"><ele>43.57142857142857</ele><time>2026-04-13T11:09:19.409Z</time></trkpt><trkpt lat="43.7573331" lon="11.1868264"><ele>43.28571428571429</ele><time>2026-04-13T11:09:25.385Z</time></trkpt><trkpt lat="43.757361" lon="11.1867389"><ele>43.0</ele><time>2026-04-13T11:09:29.41Z</time></trkpt><trkpt lat="43.7573941" lon="11.1866577"><ele>43.00000000000001</ele><time>2026-04-13T11:09:34.41Z</time></trkpt><trkpt lat="43.7574161" lon="11.1865759"><ele>43.0</ele><time>2026-04-13T11:09:39.411Z</time></trkpt><trkpt lat="43.7574391" lon="11.1864934"><ele>43.0</ele><time>2026-04-13T11:09:44.411Z</time></trkpt><trkpt lat="43.7574632" lon="11.1864096"><ele>43.0</ele><time>2026-04-13T11:09:48.433Z</time></trkpt><trkpt lat="43.7574884" lon="11.1863202"><ele>43.0</ele><time>2026-04-13T11:09:53.435Z</time></trkpt><trkpt lat="43.7575126" lon="11.1862393"><ele>43.00000000000001</ele><time>2026-04-13T11:09:58.446Z</time></trkpt><trkpt lat="43.7575415" lon="11.1861465"><ele>43.0</ele><time>2026-04-13T11:10:04.413Z</time></trkpt><trkpt lat="43.7575743" lon="11.1860532"><ele>43.142857142857146</ele><time>2026-04-13T11:10:09.484Z</time></trkpt><trkpt lat="43.7576019" lon="11.1859679"><ele>43.285714285714285</ele><time>2026-04-13T11:10:15.226Z</time></trkpt><trkpt lat="43.7576279" lon="11.1858791"><ele>43.42857142857143</ele><time>2026-04-13T11:10:21.37Z</time></trkpt><trkpt lat="43.7576626" lon="11.1858031"><ele>43.57142857142857</ele><time>2026-04-13T11:10:26.479Z</time></trkpt><trkpt lat="43.7577047" lon="11.1857219"><ele>43.714285714285715</ele><time>2026-04-13T11:10:31.304Z</time></trkpt><trkpt lat="43.7577437" lon="11.1856525"><ele>43.85714285714286</ele><time>2026-04-13T11:10:36.371Z</time></trkpt><trkpt lat="43.7577737" lon="11.1855757"><ele>44.0</ele><time>2026-04-13T11:10:41.365Z</time></trkpt><trkpt lat="43.7578158" lon="11.1854901"><ele>44.285714285714285</ele><time>2026-04-13T11:10:46.666Z</time></trkpt><trkpt lat="43.7578696" lon="11.1854356"><ele>44.57142857142857</ele><time>2026-04-13T11:10:55.395Z</time></trkpt><trkpt lat="43.7579363" lon="11.1854011"><ele>44.85714285714286</ele><time>2026-04-13T11:11:02.459Z</time></trkpt><trkpt lat="43.7580083" lon="11.1853911"><ele>45.14285714285714</ele><time>2026-04-13T11:11:07.459Z</time></trkpt><trkpt lat="43.7580456" lon="11.1853175"><ele>45.42857142857142</ele><time>2026-04-13T11:11:12.459Z</time></trkpt><trkpt lat="43.7580679" lon="11.1852303"><ele>45.714285714285715</ele><time>2026-04-13T11:11:18.437Z</time></trkpt><trkpt lat="43.7580872" lon="11.1851433"><ele>46.0</ele><time>2026-04-13T11:11:22.465Z</time></trkpt><trkpt lat="43.7581023" lon="11.1850484"><ele>46.0</ele><time>2026-04-13T11:11:28.436Z</time></trkpt><trkpt lat="43.7581151" lon="11.1849576"><ele>46.0</ele><time>2026-04-13T11:11:34.414Z</time></trkpt><trkpt lat="43.7581654" lon="11.1848888"><ele>46.0</ele><time>2026-04-13T11:11:41.479Z</time></trkpt><trkpt lat="43.7582189" lon="11.1848323"><ele>46.0</ele><time>2026-04-13T11:11:47.456Z</time></trkpt><trkpt lat="43.7582898" lon="11.1847829"><ele>46.0</ele><time>2026-04-13T11:11:55.316Z</time></trkpt><trkpt lat="43.758339" lon="11.1847273"><ele>46.0</ele><time>2026-04-13T11:11:58.433Z</time></trkpt><trkpt lat="43.7583986" lon="11.1846841"><ele>46.0</ele><time>2026-04-13T11:12:03.433Z</time></trkpt><trkpt lat="43.7584543" lon="11.1846292"><ele>46.0</ele><time>2026-04-13T11:12:11.476Z</time></trkpt><trkpt lat="43.7585403" lon="11.184557"><ele>46.0</ele><time>2026-04-13T11:12:28.43Z</time></trkpt><trkpt lat="43.7585934" lon="11.1845032"><ele>46.0</ele><time>2026-04-13T11:12:32.451Z</time></trkpt><trkpt lat="43.7586507" lon="11.1844259"><ele>46.0</ele><time>2026-04-13T11:12:36.473Z</time></trkpt><trkpt lat="43.7586933" lon="11.1843388"><ele>46.0</ele><time>2026-04-13T11:12:41.472Z</time></trkpt><trkpt lat="43.7587506" lon="11.1842797"><ele>46.0</ele><time>2026-04-13T11:12:47.449Z</time></trkpt><trkpt lat="43.7587987" lon="11.1842031"><ele>46.0</ele><time>2026-04-13T11:12:53.427Z</time></trkpt><trkpt lat="43.7588427" lon="11.1841344"><ele>46.0</ele><time>2026-04-13T11:12:59.404Z</time></trkpt><trkpt lat="43.7588778" lon="11.1840493"><ele>46.0</ele><time>2026-04-13T11:13:05.345Z</time></trkpt><trkpt lat="43.7589166" lon="11.1839566"><ele>46.0</ele><time>2026-04-13T11:13:10.467Z</time></trkpt><trkpt lat="43.7589375" lon="11.1838638"><ele>46.0</ele><time>2026-04-13T11:13:15.127Z</time></trkpt><trkpt lat="43.7589717" lon="11.1837892"><ele>46.0</ele><time>2026-04-13T11:13:20.38Z</time></trkpt><trkpt lat="43.759026" lon="11.1837104"><ele>46.0</ele><time>2026-04-13T11:13:24.401Z</time></trkpt><trkpt lat="43.7590734" lon="11.1836424"><ele>45.57142857142858</ele><time>2026-04-13T11:13:29.401Z</time></trkpt><trkpt lat="43.7591355" lon="11.1836144"><ele>45.14285714285714</ele><time>2026-04-13T11:13:35.486Z</time></trkpt><trkpt lat="43.7591994" lon="11.1836551"><ele>44.714285714285715</ele><time>2026-04-13T11:13:43.419Z</time></trkpt><trkpt lat="43.7592524" lon="11.1837174"><ele>44.28571428571429</ele><time>2026-04-13T11:13:49.484Z</time></trkpt><trkpt lat="43.7593072" lon="11.1837773"><ele>43.85714285714286</ele><time>2026-04-13T11:13:54.396Z</time></trkpt><trkpt lat="43.7593552" lon="11.1838402"><ele>43.42857142857143</ele><time>2026-04-13T11:14:01.369Z</time></trkpt><trkpt lat="43.7594117" lon="11.1839018"><ele>43.0</ele><time>2026-04-13T11:14:07.439Z</time></trkpt><trkpt lat="43.7594769" lon="11.1839648"><ele>42.85714285714286</ele><time>2026-04-13T11:14:12.387Z</time></trkpt><trkpt lat="43.7595328" lon="11.1840347"><ele>42.714285714285715</ele><time>2026-04-13T11:14:17.438Z</time></trkpt><trkpt lat="43.75958" lon="11.184093"><ele>42.57142857142857</ele><time>2026-04-13T11:14:21.383Z</time></trkpt><trkpt lat="43.7596385" lon="11.1841625"><ele>42.42857142857143</ele><time>2026-04-13T11:14:26.369Z</time></trkpt><trkpt lat="43.7596913" lon="11.1842254"><ele>42.285714285714285</ele><time>2026-04-13T11:14:31.369Z</time></trkpt><trkpt lat="43.7597458" lon="11.1842894"><ele>42.142857142857146</ele><time>2026-04-13T11:14:36.369Z</time></trkpt><trkpt lat="43.7597957" lon="11.1843459"><ele>42.0</ele><time>2026-04-13T11:14:42.439Z</time></trkpt><trkpt lat="43.7598446" lon="11.1844075"><ele>42.0</ele><time>2026-04-13T11:14:47.439Z</time></trkpt><trkpt lat="43.759898" lon="11.1844709"><ele>42.0</ele><time>2026-04-13T11:14:52.439Z</time></trkpt><trkpt lat="43.7599509" lon="11.18453"><ele>42.0</ele><time>2026-04-13T11:14:58.412Z</time></trkpt><trkpt lat="43.760009" lon="11.1845754"><ele>42.0</ele><time>2026-04-13T11:15:05.406Z</time></trkpt><trkpt lat="43.7600709" lon="11.184546"><ele>42.0</ele><time>2026-04-13T11:15:10.369Z</time></trkpt><trkpt lat="43.7601369" lon="11.1844593"><ele>42.0</ele><time>2026-04-13T11:15:14.391Z</time></trkpt><trkpt lat="43.7601976" lon="11.1844121"><ele>42.0</ele><time>2026-04-13T11:15:19.345Z</time></trkpt><trkpt lat="43.7602529" lon="11.1844754"><ele>42.0</ele><time>2026-04-13T11:15:27.434Z</time></trkpt><trkpt lat="43.7603116" lon="11.1845392"><ele>42.0</ele><time>2026-04-13T11:15:33.413Z</time></trkpt><trkpt lat="43.7603643" lon="11.1845988"><ele>42.0</ele><time>2026-04-13T11:15:39.392Z</time></trkpt><trkpt lat="43.7604168" lon="11.1846579"><ele>42.0</ele><time>2026-04-13T11:15:45.445Z</time></trkpt><trkpt lat="43.7604722" lon="11.1847218"><ele>42.0</ele><time>2026-04-13T11:15:51.457Z</time></trkpt><trkpt lat="43.7605214" lon="11.1847798"><ele>42.0</ele><time>2026-04-13T11:15:56.369Z</time></trkpt><trkpt lat="43.7605705" lon="11.1848344"><ele>42.0</ele><time>2026-04-13T11:16:00.467Z</time></trkpt><trkpt lat="43.7606225" lon="11.1848991"><ele>41.857142857142854</ele><time>2026-04-13T11:16:05.37Z</time></trkpt><trkpt lat="43.7606769" lon="11.184962"><ele>41.714285714285715</ele><time>2026-04-13T11:16:11.349Z</time></trkpt><trkpt lat="43.7607264" lon="11.1850165"><ele>41.57142857142857</ele><time>2026-04-13T11:16:15.327Z</time></trkpt><trkpt lat="43.7607744" lon="11.1850732"><ele>41.42857142857143</ele><time>2026-04-13T11:16:19.392Z</time></trkpt><trkpt lat="43.7608303" lon="11.1851281"><ele>41.285714285714285</ele><time>2026-04-13T11:16:24.393Z</time></trkpt><trkpt lat="43.7608896" lon="11.1851693"><ele>41.14285714285714</ele><time>2026-04-13T11:16:29.393Z</time></trkpt><trkpt lat="43.7609472" lon="11.1852187"><ele>41.0</ele><time>2026-04-13T11:16:33.415Z</time></trkpt><trkpt lat="43.7610086" lon="11.1852428"><ele>41.0</ele><time>2026-04-13T11:16:37.438Z</time></trkpt><trkpt lat="43.7610924" lon="11.1852286"><ele>41.0</ele><time>2026-04-13T11:16:41.702Z</time></trkpt><trkpt lat="43.7611605" lon="11.1851976"><ele>41.0</ele><time>2026-04-13T11:16:47.437Z</time></trkpt><trkpt lat="43.7612272" lon="11.185143"><ele>41.0</ele><time>2026-04-13T11:16:51.369Z</time></trkpt><trkpt lat="43.7612848" lon="11.185078"><ele>41.0</ele><time>2026-04-13T11:16:57.437Z</time></trkpt><trkpt lat="43.7613408" lon="11.1850092"><ele>41.0</ele><time>2026-04-13T11:17:03.324Z</time></trkpt><trkpt lat="43.7613865" lon="11.1849332"><ele>40.99999999999999</ele><time>2026-04-13T11:17:08.416Z</time></trkpt><trkpt lat="43.7614439" lon="11.1848658"><ele>41.0</ele><time>2026-04-13T11:17:13.364Z</time></trkpt><trkpt lat="43.7614947" lon="11.1848056"><ele>41.0</ele><time>2026-04-13T11:17:18.416Z</time></trkpt><trkpt lat="43.7615464" lon="11.1847391"><ele>41.0</ele><time>2026-04-13T11:17:23.417Z</time></trkpt><trkpt lat="43.7615963" lon="11.1846726"><ele>41.0</ele><time>2026-04-13T11:17:28.417Z</time></trkpt><trkpt lat="43.7616494" lon="11.1845986"><ele>40.99999999999999</ele><time>2026-04-13T11:17:34.396Z</time></trkpt><trkpt lat="43.761701" lon="11.1845252"><ele>41.0</ele><time>2026-04-13T11:17:39.395Z</time></trkpt><trkpt lat="43.7617526" lon="11.1844471"><ele>40.99999999999999</ele><time>2026-04-13T11:17:44.396Z</time></trkpt><trkpt lat="43.7617951" lon="11.1843801"><ele>41.0</ele><time>2026-04-13T11:17:48.417Z</time></trkpt><trkpt lat="43.7618375" lon="11.1843057"><ele>41.0</ele><time>2026-04-13T11:17:53.418Z</time></trkpt><trkpt lat="43.7618848" lon="11.1842323"><ele>41.0</ele><time>2026-04-13T11:17:58.418Z</time></trkpt><trkpt lat="43.7619315" lon="11.184152"><ele>41.0</ele><time>2026-04-13T11:18:04.396Z</time></trkpt><trkpt lat="43.7619761" lon="11.1840807"><ele>40.99999999999999</ele><time>2026-04-13T11:18:08.346Z</time></trkpt><trkpt lat="43.7620149" lon="11.184011"><ele>41.0</ele><time>2026-04-13T11:18:12.44Z</time></trkpt><trkpt lat="43.7620545" lon="11.1839418"><ele>40.99999999999999</ele><time>2026-04-13T11:18:17.314Z</time></trkpt><trkpt lat="43.7620788" lon="11.1838608"><ele>41.0</ele><time>2026-04-13T11:18:23.418Z</time></trkpt><trkpt lat="43.7621243" lon="11.1837796"><ele>41.0</ele><time>2026-04-13T11:18:30.375Z</time></trkpt><trkpt lat="43.7621631" lon="11.1837032"><ele>41.0</ele><time>2026-04-13T11:18:34.397Z</time></trkpt><trkpt lat="43.7622063" lon="11.1836191"><ele>41.0</ele><time>2026-04-13T11:18:39.397Z</time></trkpt><trkpt lat="43.7622431" lon="11.1835376"><ele>40.99999999999999</ele><time>2026-04-13T11:18:45.646Z</time></trkpt><trkpt lat="43.7622802" lon="11.1834532"><ele>41.0</ele><time>2026-04-13T11:18:51.204Z</time></trkpt><trkpt lat="43.7622336" lon="11.1833681"><ele>40.99999999999999</ele><time>2026-04-13T11:18:58.416Z</time></trkpt><trkpt lat="43.7621682" lon="11.1833037"><ele>41.0</ele><time>2026-04-13T11:19:02.405Z</time></trkpt><trkpt lat="43.7620958" lon="11.183249"><ele>41.0</ele><time>2026-04-13T11:19:06.458Z</time></trkpt><trkpt lat="43.7620365" lon="11.1831972"><ele>41.0</ele><time>2026-04-13T11:19:10.372Z</time></trkpt><trkpt lat="43.7619749" lon="11.1831481"><ele>41.0</ele><time>2026-04-13T11:19:16.368Z</time></trkpt><trkpt lat="43.7619174" lon="11.1830967"><ele>40.99999999999999</ele><time>2026-04-13T11:19:22.438Z</time></trkpt><trkpt lat="43.7618536" lon="11.1830412"><ele>41.0</ele><time>2026-04-13T11:19:28.416Z</time></trkpt><trkpt lat="43.7617855" lon="11.1829823"><ele>41.14285714285714</ele><time>2026-04-13T11:19:34.395Z</time></trkpt><trkpt lat="43.7617307" lon="11.1829354"><ele>41.285714285714285</ele><time>2026-04-13T11:19:38.418Z</time></trkpt><trkpt lat="43.761673" lon="11.1828837"><ele>41.42857142857143</ele><time>2026-04-13T11:19:43.418Z</time></trkpt><trkpt lat="43.7616186" lon="11.1828301"><ele>41.57142857142857</ele><time>2026-04-13T11:19:48.445Z</time></trkpt><trkpt lat="43.7615627" lon="11.1827815"><ele>41.714285714285715</ele><time>2026-04-13T11:19:54.397Z</time></trkpt><trkpt lat="43.7614874" lon="11.182724"><ele>41.857142857142854</ele><time>2026-04-13T11:20:00.376Z</time></trkpt><trkpt lat="43.761428" lon="11.1826681"><ele>42.0</ele><time>2026-04-13T11:20:06.387Z</time></trkpt><trkpt lat="43.7613632" lon="11.1826172"><ele>42.0</ele><time>2026-04-13T11:20:12.484Z</time></trkpt><trkpt lat="43.761299" lon="11.1825632"><ele>42.0</ele><time>2026-04-13T11:20:18.421Z</time></trkpt><trkpt lat="43.7612507" lon="11.1825011"><ele>42.0</ele><time>2026-04-13T11:20:25.378Z</time></trkpt><trkpt lat="43.7612649" lon="11.1824138"><ele>42.0</ele><time>2026-04-13T11:20:31.384Z</time></trkpt><trkpt lat="43.7612986" lon="11.1823326"><ele>42.0</ele><time>2026-04-13T11:20:36.364Z</time></trkpt><trkpt lat="43.7613498" lon="11.1822636"><ele>42.0</ele><time>2026-04-13T11:20:40.379Z</time></trkpt><trkpt lat="43.7613972" lon="11.1821954"><ele>42.0</ele><time>2026-04-13T11:20:43.423Z</time></trkpt><trkpt lat="43.7614357" lon="11.1821156"><ele>42.142857142857146</ele><time>2026-04-13T11:20:47.427Z</time></trkpt><trkpt lat="43.7614778" lon="11.1820385"><ele>42.285714285714285</ele><time>2026-04-13T11:20:54.402Z</time></trkpt><trkpt lat="43.7615155" lon="11.1819568"><ele>42.42857142857143</ele><time>2026-04-13T11:20:59.403Z</time></trkpt><trkpt lat="43.7615604" lon="11.1818749"><ele>42.57142857142857</ele><time>2026-04-13T11:21:04.403Z</time></trkpt><trkpt lat="43.7616078" lon="11.1818076"><ele>42.714285714285715</ele><time>2026-04-13T11:21:10.383Z</time></trkpt><trkpt lat="43.7616505" lon="11.18173"><ele>42.85714285714286</ele><time>2026-04-13T11:21:17.287Z</time></trkpt><trkpt lat="43.761696" lon="11.1816664"><ele>43.0</ele><time>2026-04-13T11:21:21.368Z</time></trkpt><trkpt lat="43.761742" lon="11.1815969"><ele>42.85714285714286</ele><time>2026-04-13T11:21:25.383Z</time></trkpt><trkpt lat="43.7617569" lon="11.1815081"><ele>42.714285714285715</ele><time>2026-04-13T11:21:29.405Z</time></trkpt><trkpt lat="43.7617836" lon="11.1814191"><ele>42.57142857142857</ele><time>2026-04-13T11:21:34.343Z</time></trkpt><trkpt lat="43.7617976" lon="11.1813178"><ele>42.42857142857143</ele><time>2026-04-13T11:21:40.385Z</time></trkpt><trkpt lat="43.7618356" lon="11.1812276"><ele>42.285714285714285</ele><time>2026-04-13T11:21:45.384Z</time></trkpt><trkpt lat="43.7618714" lon="11.1811472"><ele>42.142857142857146</ele><time>2026-04-13T11:21:50.425Z</time></trkpt><trkpt lat="43.7619085" lon="11.1810612"><ele>42.0</ele><time>2026-04-13T11:21:55.427Z</time></trkpt><trkpt lat="43.7619492" lon="11.1809733"><ele>42.0</ele><time>2026-04-13T11:22:01.368Z</time></trkpt><trkpt lat="43.7619865" lon="11.1808982"><ele>42.0</ele><time>2026-04-13T11:22:06.368Z</time></trkpt><trkpt lat="43.7620261" lon="11.1808085"><ele>42.0</ele><time>2026-04-13T11:22:11.368Z</time></trkpt><trkpt lat="43.7620706" lon="11.1807267"><ele>42.0</ele><time>2026-04-13T11:22:16.446Z</time></trkpt><trkpt lat="43.7621107" lon="11.1806428"><ele>42.0</ele><time>2026-04-13T11:22:21.347Z</time></trkpt><trkpt lat="43.7621299" lon="11.1805549"><ele>42.0</ele><time>2026-04-13T11:22:26.368Z</time></trkpt><trkpt lat="43.7620762" lon="11.180507"><ele>42.0</ele><time>2026-04-13T11:22:29.409Z</time></trkpt><trkpt lat="43.7620058" lon="11.1804611"><ele>42.0</ele><time>2026-04-13T11:22:33.432Z</time></trkpt><trkpt lat="43.76193" lon="11.1804178"><ele>42.0</ele><time>2026-04-13T11:22:37.368Z</time></trkpt><trkpt lat="43.7618615" lon="11.1803635"><ele>42.0</ele><time>2026-04-13T11:22:53.446Z</time></trkpt><trkpt lat="43.7618023" lon="11.1803165"><ele>42.0</ele><time>2026-04-13T11:22:58.434Z</time></trkpt><trkpt lat="43.7617427" lon="11.1802736"><ele>42.0</ele><time>2026-04-13T11:23:03.434Z</time></trkpt><trkpt lat="43.7616853" lon="11.1802275"><ele>42.0</ele><time>2026-04-13T11:23:09.413Z</time></trkpt><trkpt lat="43.7616225" lon="11.1801771"><ele>42.0</ele><time>2026-04-13T11:23:14.414Z</time></trkpt><trkpt lat="43.7615539" lon="11.180126"><ele>42.0</ele><time>2026-04-13T11:23:18.305Z</time></trkpt><trkpt lat="43.7614956" lon="11.1800778"><ele>42.0</ele><time>2026-04-13T11:23:23.437Z</time></trkpt><trkpt lat="43.7614349" lon="11.1800346"><ele>42.0</ele><time>2026-04-13T11:23:28.326Z</time></trkpt><trkpt lat="43.7613698" lon="11.1800021"><ele>42.0</ele><time>2026-04-13T11:23:34.416Z</time></trkpt><trkpt lat="43.7612983" lon="11.1799746"><ele>42.0</ele><time>2026-04-13T11:23:39.463Z</time></trkpt><trkpt lat="43.76124" lon="11.1799006"><ele>42.0</ele><time>2026-04-13T11:23:44.413Z</time></trkpt><trkpt lat="43.7611893" lon="11.1798378"><ele>42.0</ele><time>2026-04-13T11:23:49.413Z</time></trkpt><trkpt lat="43.7611263" lon="11.1797828"><ele>41.857142857142854</ele><time>2026-04-13T11:23:55.392Z</time></trkpt><trkpt lat="43.7610759" lon="11.1797257"><ele>41.714285714285715</ele><time>2026-04-13T11:24:00.385Z</time></trkpt><trkpt lat="43.7610154" lon="11.1796723"><ele>41.57142857142857</ele><time>2026-04-13T11:24:06.467Z</time></trkpt><trkpt lat="43.7609445" lon="11.1796335"><ele>41.42857142857143</ele><time>2026-04-13T11:24:11.372Z</time></trkpt><trkpt lat="43.7608736" lon="11.1795907"><ele>41.285714285714285</ele><time>2026-04-13T11:24:16.305Z</time></trkpt><trkpt lat="43.7608172" lon="11.1795453"><ele>41.14285714285714</ele><time>2026-04-13T11:24:21.328Z</time></trkpt><trkpt lat="43.7607613" lon="11.1795044"><ele>41.0</ele><time>2026-04-13T11:24:26.374Z</time></trkpt><trkpt lat="43.760701" lon="11.1794638"><ele>41.285714285714285</ele><time>2026-04-13T11:24:32.326Z</time></trkpt><trkpt lat="43.7606379" lon="11.179418"><ele>41.57142857142857</ele><time>2026-04-13T11:24:38.385Z</time></trkpt><trkpt lat="43.7605795" lon="11.1793746"><ele>41.85714285714286</ele><time>2026-04-13T11:24:44.421Z</time></trkpt><trkpt lat="43.7605155" lon="11.1793506"><ele>42.14285714285714</ele><time>2026-04-13T11:24:51.378Z</time></trkpt><trkpt lat="43.760458" lon="11.1794226"><ele>42.42857142857143</ele><time>2026-04-13T11:24:58.443Z</time></trkpt><trkpt lat="43.7603976" lon="11.1794954"><ele>42.714285714285715</ele><time>2026-04-13T11:25:02.367Z</time></trkpt><trkpt lat="43.7603636" lon="11.1795702"><ele>43.0</ele><time>2026-04-13T11:25:06.386Z</time></trkpt><trkpt lat="43.7603321" lon="11.1796566"><ele>43.00000000000001</ele><time>2026-04-13T11:25:12.367Z</time></trkpt><trkpt lat="43.7603037" lon="11.1797414"><ele>43.0</ele><time>2026-04-13T11:25:17.367Z</time></trkpt><trkpt lat="43.7602431" lon="11.1797825"><ele>43.0</ele><time>2026-04-13T11:25:22.346Z</time></trkpt><trkpt lat="43.7602167" lon="11.1798644"><ele>43.0</ele><time>2026-04-13T11:25:29.425Z</time></trkpt><trkpt lat="43.7601648" lon="11.1798"><ele>43.0</ele><time>2026-04-13T11:25:45.405Z</time></trkpt><trkpt lat="43.7601123" lon="11.1797404"><ele>43.00000000000001</ele><time>2026-04-13T11:25:49.444Z</time></trkpt><trkpt lat="43.7600449" lon="11.1796833"><ele>43.0</ele><time>2026-04-13T11:25:52.286Z</time></trkpt><trkpt lat="43.7599685" lon="11.1796779"><ele>43.142857142857146</ele><time>2026-04-13T11:25:56.385Z</time></trkpt><trkpt lat="43.7599058" lon="11.179658"><ele>43.285714285714285</ele><time>2026-04-13T11:25:59.428Z</time></trkpt><trkpt lat="43.7598085" lon="11.1796167"><ele>43.42857142857143</ele><time>2026-04-13T11:26:03.451Z</time></trkpt><trkpt lat="43.7597413" lon="11.1796198"><ele>43.57142857142857</ele><time>2026-04-13T11:26:08.325Z</time></trkpt><trkpt lat="43.7596794" lon="11.1795944"><ele>43.714285714285715</ele><time>2026-04-13T11:26:15.408Z</time></trkpt><trkpt lat="43.7596156" lon="11.1795596"><ele>43.85714285714286</ele><time>2026-04-13T11:26:22.367Z</time></trkpt><trkpt lat="43.7595613" lon="11.1795138"><ele>44.0</ele><time>2026-04-13T11:26:28.386Z</time></trkpt><trkpt lat="43.7595009" lon="11.1794582"><ele>44.0</ele><time>2026-04-13T11:26:33.367Z</time></trkpt><trkpt lat="43.7594584" lon="11.1793821"><ele>44.0</ele><time>2026-04-13T11:26:41.389Z</time></trkpt><trkpt lat="43.7594199" lon="11.1792941"><ele>44.0</ele><time>2026-04-13T11:26:46.389Z</time></trkpt><trkpt lat="43.7593875" lon="11.1792145"><ele>44.0</ele><time>2026-04-13T11:26:49.433Z</time></trkpt><trkpt lat="43.7593385" lon="11.1791538"><ele>44.0</ele><time>2026-04-13T11:26:54.434Z</time></trkpt><trkpt lat="43.7592726" lon="11.179132"><ele>44.0</ele><time>2026-04-13T11:27:00.424Z</time></trkpt><trkpt lat="43.7592092" lon="11.1790843"><ele>44.0</ele><time>2026-04-13T11:27:04.435Z</time></trkpt><trkpt lat="43.7591477" lon="11.1790646"><ele>44.57142857142857</ele><time>2026-04-13T11:27:08.457Z</time></trkpt><trkpt lat="43.759089" lon="11.1791388"><ele>45.14285714285714</ele><time>2026-04-13T11:27:12.371Z</time></trkpt><trkpt lat="43.7590211" lon="11.1791959"><ele>45.71428571428571</ele><time>2026-04-13T11:27:17.371Z</time></trkpt><trkpt lat="43.7589553" lon="11.1791712"><ele>46.285714285714285</ele><time>2026-04-13T11:27:21.426Z</time></trkpt><trkpt lat="43.7588893" lon="11.1791835"><ele>46.857142857142854</ele><time>2026-04-13T11:27:28.367Z</time></trkpt><trkpt lat="43.7588568" lon="11.1792634"><ele>47.42857142857142</ele><time>2026-04-13T11:27:32.305Z</time></trkpt><trkpt lat="43.7588146" lon="11.1793488"><ele>48.0</ele><time>2026-04-13T11:27:37.373Z</time></trkpt><trkpt lat="43.7587734" lon="11.1794234"><ele>47.99999999999999</ele><time>2026-04-13T11:27:42.467Z</time></trkpt><trkpt lat="43.7587324" lon="11.1795031"><ele>48.0</ele><time>2026-04-13T11:27:47.375Z</time></trkpt><trkpt lat="43.7586877" lon="11.1795879"><ele>48.0</ele><time>2026-04-13T11:27:52.374Z</time></trkpt><trkpt lat="43.7586511" lon="11.1796615"><ele>48.0</ele><time>2026-04-13T11:27:57.375Z</time></trkpt><trkpt lat="43.7586226" lon="11.1797448"><ele>48.0</ele><time>2026-04-13T11:28:03.463Z</time></trkpt><trkpt lat="43.7585802" lon="11.1798171"><ele>47.99999999999999</ele><time>2026-04-13T11:28:09.441Z</time></trkpt><trkpt lat="43.7585374" lon="11.1798937"><ele>48.0</ele><time>2026-04-13T11:28:14.442Z</time></trkpt><trkpt lat="43.7584949" lon="11.1799861"><ele>47.42857142857142</ele><time>2026-04-13T11:28:20.42Z</time></trkpt><trkpt lat="43.7584571" lon="11.1800658"><ele>46.857142857142854</ele><time>2026-04-13T11:28:25.363Z</time></trkpt><trkpt lat="43.7584191" lon="11.1801366"><ele>46.285714285714285</ele><time>2026-04-13T11:28:29.366Z</time></trkpt><trkpt lat="43.7583659" lon="11.1801935"><ele>45.71428571428571</ele><time>2026-04-13T11:28:34.445Z</time></trkpt><trkpt lat="43.7583238" lon="11.1802691"><ele>45.14285714285714</ele><time>2026-04-13T11:28:41.4Z</time></trkpt><trkpt lat="43.758303" lon="11.1803597"><ele>44.57142857142857</ele><time>2026-04-13T11:28:47.38Z</time></trkpt><trkpt lat="43.7582686" lon="11.1804327"><ele>44.0</ele><time>2026-04-13T11:28:52.38Z</time></trkpt><trkpt lat="43.7582356" lon="11.1805105"><ele>44.0</ele><time>2026-04-13T11:28:58.467Z</time></trkpt><trkpt lat="43.758208" lon="11.1805953"><ele>44.0</ele><time>2026-04-13T11:29:04.305Z</time></trkpt><trkpt lat="43.7581725" lon="11.1806776"><ele>44.0</ele><time>2026-04-13T11:29:09.424Z</time></trkpt><trkpt lat="43.7581186" lon="11.1807511"><ele>44.0</ele><time>2026-04-13T11:29:16.301Z</time></trkpt><trkpt lat="43.7580866" lon="11.1808329"><ele>44.0</ele><time>2026-04-13T11:29:22.385Z</time></trkpt><trkpt lat="43.7580138" lon="11.1808245"><ele>44.0</ele><time>2026-04-13T11:29:28.383Z</time></trkpt><trkpt lat="43.757957" lon="11.1807528"><ele>44.0</ele><time>2026-04-13T11:29:32.384Z</time></trkpt><trkpt lat="43.7579147" lon="11.1806838"><ele>45.0</ele><time>2026-04-13T11:29:36.405Z</time></trkpt><trkpt lat="43.7578547" lon="11.1806265"><ele>44.0</ele><time>2026-04-13T11:29:41.487Z</time></trkpt><trkpt lat="43.7577818" lon="11.1805929"><ele>44.0</ele><time>2026-04-13T11:29:46.405Z</time></trkpt><trkpt lat="43.7577199" lon="11.180576"><ele>44.0</ele><time>2026-04-13T11:29:52.383Z</time></trkpt><trkpt lat="43.7576383" lon="11.1807169"><ele>45.0</ele><time>2026-04-13T11:30:20.926Z</time></trkpt><trkpt lat="43.7575865" lon="11.1807665"><ele>45.0</ele><time>2026-04-13T11:30:28.766Z</time></trkpt></trkseg></trk></gpx>